Main page
METAR-TAF:

METAR-TAF

Airports :

Orange-Caritat Air Base

Orange, France

latitude: 44-08N, longitude: 004-50E, elevation: 60 m

Current weather observation

The report was made 14 minutes ago, at 12:30 UTC
Wind 9 kt from the South/Southwest, varying between South/Southeast and West
Temperature 22°C
Humidity 57%
Pressure 1008 hPa
Visibility 10 km or more
Few clouds at a height of 4200 ft
Scattered clouds at a height of 23000 ft

METAR: LFMO 201230Z AUTO 20009KT 160V260 9999 FEW042 SCT230 22/13 Q1008 TEMPO SCT050CB

Time: 14:44 (12:44 UTC)

Forecast

The report was made 4 hours and 44 minutes ago, at 08:00 UTC
Forecast valid from 20 at 09 UTC to 21 at 09 UTC
Wind 5 kt from the West
Visibility 10 km or more
no clouds below 1500 m and no cumulonimbus
Probability 30% :
Temporary
from 20 at 13 UTC to 20 at 18 UTC
Scattered clouds at a height of 5000 ft, Cumulonimbus.

TAF: LFMO 200800Z 2009/2109 27005KT CAVOK TX23/2015Z TN11/2104Z PROB30 TEMPO 2013/2018 SCT050CB

Weather observations and forecasts of more than 4000 airports (METAR and TAF reports).

The available stations are represented by yellow and red dots on the map.

Hover mouse over dot to see the name of the station.

Then click to see weather observations and forecasts.

To change the map : click on the green buttons with a black cross to zoom in, on the green button with a dash to zoom out, or on the green arrows for adjacent maps.


METAR-TAF: